sensor_id;sensor_type;location;lat;lon;timestamp;P1;durP1;ratioP1;P2;durP2;ratioP2
1320;SDS011;653;51.480;11.992;2023-04-24T00:01:36;3.07;;;1.53;;
1320;SDS011;653;51.480;11.992;2023-04-24T00:04:03;1.80;;;1.47;;
1320;SDS011;653;51.480;11.992;2023-04-24T00:06:30;6.53;;;2.90;;
1320;SDS011;653;51.480;11.992;2023-04-24T00:09:03;2.83;;;1.33;;
1320;SDS011;653;51.480;11.992;2023-04-24T00:11:30;1.60;;;1.10;;
1320;SDS011;653;51.480;11.992;2023-04-24T00:13:56;2.57;;;1.03;;
1320;SDS011;653;51.480;11.992;2023-04-24T00:16:23;1.70;;;1.20;;
1320;SDS011;653;51.480;11.992;2023-04-24T00:18:49;2.27;;;1.53;;
1320;SDS011;653;51.480;11.992;2023-04-24T00:21:19;2.27;;;1.90;;
1320;SDS011;653;51.480;11.992;2023-04-24T00:23:47;2.13;;;1.53;;
1320;SDS011;653;51.480;11.992;2023-04-24T00:26:13;3.27;;;1.73;;
1320;SDS011;653;51.480;11.992;2023-04-24T00:28:39;1.70;;;1.43;;
1320;SDS011;653;51.480;11.992;2023-04-24T00:31:06;3.80;;;1.40;;
1320;SDS011;653;51.480;11.992;2023-04-24T00:33:32;2.93;;;1.30;;
1320;SDS011;653;51.480;11.992;2023-04-24T00:35:58;1.30;;;0.90;;
1320;SDS011;653;51.480;11.992;2023-04-24T00:38:26;1.30;;;1.10;;
1320;SDS011;653;51.480;11.992;2023-04-24T00:40:52;1.90;;;0.97;;
1320;SDS011;653;51.480;11.992;2023-04-24T00:43:19;1.70;;;1.20;;
1320;SDS011;653;51.480;11.992;2023-04-24T00:45:47;1.60;;;0.80;;
1320;SDS011;653;51.480;11.992;2023-04-24T00:48:13;1.80;;;0.87;;
1320;SDS011;653;51.480;11.992;2023-04-24T00:50:41;1.70;;;0.70;;
1320;SDS011;653;51.480;11.992;2023-04-24T00:53:08;1.73;;;0.77;;
1320;SDS011;653;51.480;11.992;2023-04-24T00:55:35;1.50;;;0.97;;
1320;SDS011;653;51.480;11.992;2023-04-24T00:58:03;2.40;;;1.13;;
1320;SDS011;653;51.480;11.992;2023-04-24T01:00:29;1.10;;;0.70;;
1320;SDS011;653;51.480;11.992;2023-04-24T01:02:57;2.63;;;0.70;;
1320;SDS011;653;51.480;11.992;2023-04-24T01:05:25;2.53;;;0.70;;
1320;SDS011;653;51.480;11.992;2023-04-24T01:07:52;2.27;;;1.00;;
1320;SDS011;653;51.480;11.992;2023-04-24T01:10:18;2.10;;;0.90;;
1320;SDS011;653;51.480;11.992;2023-04-24T01:12:47;2.90;;;1.53;;
1320;SDS011;653;51.480;11.992;2023-04-24T01:15:13;1.73;;;0.77;;
1320;SDS011;653;51.480;11.992;2023-04-24T01:17:40;1.23;;;0.80;;
1320;SDS011;653;51.480;11.992;2023-04-24T01:20:05;1.30;;;0.70;;
1320;SDS011;653;51.480;11.992;2023-04-24T01:22:32;2.53;;;1.07;;
1320;SDS011;653;51.480;11.992;2023-04-24T01:25:01;3.37;;;0.93;;
1320;SDS011;653;51.480;11.992;2023-04-24T01:27:28;1.30;;;0.67;;
1320;SDS011;653;51.480;11.992;2023-04-24T01:29:55;1.17;;;0.73;;
1320;SDS011;653;51.480;11.992;2023-04-24T01:32:21;1.37;;;0.90;;
1320;SDS011;653;51.480;11.992;2023-04-24T01:34:48;1.67;;;1.07;;
1320;SDS011;653;51.480;11.992;2023-04-24T01:37:15;1.67;;;1.00;;
1320;SDS011;653;51.480;11.992;2023-04-24T01:39:42;2.40;;;1.67;;
1320;SDS011;653;51.480;11.992;2023-04-24T01:42:10;2.93;;;1.00;;
1320;SDS011;653;51.480;11.992;2023-04-24T01:44:35;1.50;;;1.00;;
1320;SDS011;653;51.480;11.992;2023-04-24T01:47:03;2.00;;;1.23;;
1320;SDS011;653;51.480;11.992;2023-04-24T01:49:30;1.60;;;1.17;;
1320;SDS011;653;51.480;11.992;2023-04-24T01:51:58;1.80;;;1.20;;
1320;SDS011;653;51.480;11.992;2023-04-24T01:54:27;1.77;;;1.20;;
1320;SDS011;653;51.480;11.992;2023-04-24T01:56:55;2.13;;;0.90;;
1320;SDS011;653;51.480;11.992;2023-04-24T01:59:21;2.03;;;1.27;;
1320;SDS011;653;51.480;11.992;2023-04-24T02:01:49;2.00;;;1.20;;
1320;SDS011;653;51.480;11.992;2023-04-24T02:04:15;2.20;;;1.40;;
1320;SDS011;653;51.480;11.992;2023-04-24T02:06:41;1.90;;;1.07;;
1320;SDS011;653;51.480;11.992;2023-04-24T02:09:09;1.77;;;1.23;;
1320;SDS011;653;51.480;11.992;2023-04-24T02:11:36;2.37;;;1.40;;
1320;SDS011;653;51.480;11.992;2023-04-24T02:14:02;1.50;;;1.10;;
1320;SDS011;653;51.480;11.992;2023-04-24T02:16:29;2.33;;;1.20;;
1320;SDS011;653;51.480;11.992;2023-04-24T02:19:02;1.77;;;1.00;;
1320;SDS011;653;51.480;11.992;2023-04-24T02:21:30;1.67;;;1.50;;
1320;SDS011;653;51.480;11.992;2023-04-24T02:23:57;2.07;;;0.90;;
1320;SDS011;653;51.480;11.992;2023-04-24T02:26:23;2.20;;;1.30;;
1320;SDS011;653;51.480;11.992;2023-04-24T02:28:50;2.83;;;0.93;;
1320;SDS011;653;51.480;11.992;2023-04-24T02:31:15;1.60;;;0.90;;
1320;SDS011;653;51.480;11.992;2023-04-24T02:33:42;2.13;;;1.40;;
1320;SDS011;653;51.480;11.992;2023-04-24T02:36:08;1.53;;;0.97;;
1320;SDS011;653;51.480;11.992;2023-04-24T02:38:35;2.10;;;1.20;;
1320;SDS011;653;51.480;11.992;2023-04-24T02:41:02;1.77;;;1.13;;
1320;SDS011;653;51.480;11.992;2023-04-24T02:43:31;1.50;;;1.03;;
1320;SDS011;653;51.480;11.992;2023-04-24T02:45:59;2.00;;;1.40;;
1320;SDS011;653;51.480;11.992;2023-04-24T02:48:26;2.30;;;1.30;;
1320;SDS011;653;51.480;11.992;2023-04-24T02:50:55;2.73;;;1.53;;
1320;SDS011;653;51.480;11.992;2023-04-24T02:53:21;1.73;;;1.30;;
1320;SDS011;653;51.480;11.992;2023-04-24T02:55:49;1.40;;;1.17;;
1320;SDS011;653;51.480;11.992;2023-04-24T02:58:15;1.73;;;1.27;;
1320;SDS011;653;51.480;11.992;2023-04-24T03:00:42;1.63;;;1.10;;
1320;SDS011;653;51.480;11.992;2023-04-24T03:03:10;2.00;;;1.30;;
1320;SDS011;653;51.480;11.992;2023-04-24T03:05:36;1.27;;;0.90;;
1320;SDS011;653;51.480;11.992;2023-04-24T03:08:02;1.70;;;1.20;;
1320;SDS011;653;51.480;11.992;2023-04-24T03:10:28;4.40;;;1.20;;
1320;SDS011;653;51.480;11.992;2023-04-24T03:12:54;1.70;;;1.30;;
1320;SDS011;653;51.480;11.992;2023-04-24T03:15:20;1.87;;;1.20;;
1320;SDS011;653;51.480;11.992;2023-04-24T03:17:48;1.80;;;1.30;;
1320;SDS011;653;51.480;11.992;2023-04-24T03:20:15;1.77;;;1.20;;
1320;SDS011;653;51.480;11.992;2023-04-24T03:22:42;1.77;;;1.27;;
1320;SDS011;653;51.480;11.992;2023-04-24T03:25:09;2.30;;;1.20;;
1320;SDS011;653;51.480;11.992;2023-04-24T03:27:36;3.20;;;1.53;;
1320;SDS011;653;51.480;11.992;2023-04-24T03:30:02;3.70;;;1.80;;
1320;SDS011;653;51.480;11.992;2023-04-24T03:32:30;2.07;;;1.13;;
1320;SDS011;653;51.480;11.992;2023-04-24T03:34:59;2.37;;;1.27;;
1320;SDS011;653;51.480;11.992;2023-04-24T03:37:27;1.60;;;1.30;;
1320;SDS011;653;51.480;11.992;2023-04-24T03:39:54;3.80;;;1.50;;
1320;SDS011;653;51.480;11.992;2023-04-24T03:42:21;1.60;;;1.13;;
1320;SDS011;653;51.480;11.992;2023-04-24T03:44:46;2.00;;;1.33;;
1320;SDS011;653;51.480;11.992;2023-04-24T03:47:12;1.70;;;1.10;;
1320;SDS011;653;51.480;11.992;2023-04-24T03:49:38;2.07;;;1.30;;
1320;SDS011;653;51.480;11.992;2023-04-24T03:52:05;2.83;;;1.33;;
1320;SDS011;653;51.480;11.992;2023-04-24T03:54:30;2.53;;;1.10;;
1320;SDS011;653;51.480;11.992;2023-04-24T03:56:57;1.80;;;1.03;;
1320;SDS011;653;51.480;11.992;2023-04-24T03:59:24;2.17;;;1.40;;
1320;SDS011;653;51.480;11.992;2023-04-24T04:01:49;2.03;;;1.23;;
1320;SDS011;653;51.480;11.992;2023-04-24T04:04:15;4.80;;;1.73;;
1320;SDS011;653;51.480;11.992;2023-04-24T04:06:42;1.90;;;1.60;;
1320;SDS011;653;51.480;11.992;2023-04-24T04:09:10;1.70;;;1.27;;
1320;SDS011;653;51.480;11.992;2023-04-24T04:11:37;2.10;;;1.20;;
1320;SDS011;653;51.480;11.992;2023-04-24T04:14:02;2.13;;;1.17;;
1320;SDS011;653;51.480;11.992;2023-04-24T04:16:27;1.60;;;1.07;;
1320;SDS011;653;51.480;11.992;2023-04-24T04:18:53;1.60;;;1.20;;
1320;SDS011;653;51.480;11.992;2023-04-24T04:21:20;3.43;;;1.50;;
1320;SDS011;653;51.480;11.992;2023-04-24T04:23:46;2.80;;;1.37;;
1320;SDS011;653;51.480;11.992;2023-04-24T04:26:12;3.30;;;1.70;;
1320;SDS011;653;51.480;11.992;2023-04-24T04:28:39;1.97;;;1.40;;
1320;SDS011;653;51.480;11.992;2023-04-24T04:31:07;3.70;;;1.87;;
1320;SDS011;653;51.480;11.992;2023-04-24T04:33:34;1.63;;;1.07;;
1320;SDS011;653;51.480;11.992;2023-04-24T04:36:02;3.43;;;1.83;;
1320;SDS011;653;51.480;11.992;2023-04-24T04:38:30;1.50;;;1.30;;
1320;SDS011;653;51.480;11.992;2023-04-24T04:40:56;2.23;;;1.50;;
1320;SDS011;653;51.480;11.992;2023-04-24T04:43:23;1.90;;;1.27;;
1320;SDS011;653;51.480;11.992;2023-04-24T04:45:49;1.80;;;1.50;;
1320;SDS011;653;51.480;11.992;2023-04-24T04:48:17;2.87;;;2.27;;
1320;SDS011;653;51.480;11.992;2023-04-24T04:50:45;3.33;;;1.60;;
1320;SDS011;653;51.480;11.992;2023-04-24T04:53:11;2.07;;;1.60;;
1320;SDS011;653;51.480;11.992;2023-04-24T04:55:37;3.07;;;1.97;;
1320;SDS011;653;51.480;11.992;2023-04-24T04:58:04;2.93;;;2.20;;
1320;SDS011;653;51.480;11.992;2023-04-24T05:00:33;2.37;;;1.40;;
1320;SDS011;653;51.480;11.992;2023-04-24T05:03:01;3.93;;;1.93;;
1320;SDS011;653;51.480;11.992;2023-04-24T05:05:27;2.20;;;1.80;;
1320;SDS011;653;51.480;11.992;2023-04-24T05:07:55;2.63;;;2.10;;
1320;SDS011;653;51.480;11.992;2023-04-24T05:10:22;2.20;;;1.40;;
1320;SDS011;653;51.480;11.992;2023-04-24T05:12:47;2.00;;;1.60;;
1320;SDS011;653;51.480;11.992;2023-04-24T05:15:16;2.83;;;2.30;;
1320;SDS011;653;51.480;11.992;2023-04-24T05:17:42;2.70;;;2.07;;
1320;SDS011;653;51.480;11.992;2023-04-24T05:20:09;2.80;;;1.57;;
1320;SDS011;653;51.480;11.992;2023-04-24T05:22:36;2.50;;;1.87;;
1320;SDS011;653;51.480;11.992;2023-04-24T05:25:01;1.93;;;1.30;;
1320;SDS011;653;51.480;11.992;2023-04-24T05:27:27;2.47;;;1.50;;
1320;SDS011;653;51.480;11.992;2023-04-24T05:29:54;2.70;;;1.60;;
1320;SDS011;653;51.480;11.992;2023-04-24T05:32:21;1.87;;;1.57;;
1320;SDS011;653;51.480;11.992;2023-04-24T05:34:48;4.17;;;2.10;;
1320;SDS011;653;51.480;11.992;2023-04-24T05:37:13;3.10;;;1.50;;
1320;SDS011;653;51.480;11.992;2023-04-24T05:39:40;2.20;;;1.47;;
1320;SDS011;653;51.480;11.992;2023-04-24T05:42:06;1.70;;;1.50;;
1320;SDS011;653;51.480;11.992;2023-04-24T05:44:35;5.40;;;1.60;;
1320;SDS011;653;51.480;11.992;2023-04-24T05:47:01;1.80;;;1.50;;
1320;SDS011;653;51.480;11.992;2023-04-24T05:49:32;2.03;;;1.60;;
1320;SDS011;653;51.480;11.992;2023-04-24T05:51:59;1.90;;;1.53;;
1320;SDS011;653;51.480;11.992;2023-04-24T05:54:24;4.30;;;2.00;;
1320;SDS011;653;51.480;11.992;2023-04-24T05:56:51;2.50;;;1.90;;
1320;SDS011;653;51.480;11.992;2023-04-24T05:59:16;2.40;;;1.33;;
1320;SDS011;653;51.480;11.992;2023-04-24T06:01:43;1.70;;;1.50;;
1320;SDS011;653;51.480;11.992;2023-04-24T06:04:11;1.93;;;1.43;;
1320;SDS011;653;51.480;11.992;2023-04-24T06:06:39;1.67;;;1.10;;
1320;SDS011;653;51.480;11.992;2023-04-24T06:09:06;2.00;;;1.20;;
1320;SDS011;653;51.480;11.992;2023-04-24T06:11:32;3.27;;;1.90;;
1320;SDS011;653;51.480;11.992;2023-04-24T06:13:58;2.90;;;1.70;;
1320;SDS011;653;51.480;11.992;2023-04-24T06:16:24;1.37;;;1.27;;
1320;SDS011;653;51.480;11.992;2023-04-24T06:18:51;2.90;;;1.47;;
1320;SDS011;653;51.480;11.992;2023-04-24T06:21:17;1.40;;;1.10;;
1320;SDS011;653;51.480;11.992;2023-04-24T06:23:44;1.60;;;1.23;;
1320;SDS011;653;51.480;11.992;2023-04-24T06:26:11;3.30;;;1.30;;
1320;SDS011;653;51.480;11.992;2023-04-24T06:28:38;2.63;;;1.20;;
1320;SDS011;653;51.480;11.992;2023-04-24T06:31:03;3.17;;;2.03;;
1320;SDS011;653;51.480;11.992;2023-04-24T06:33:29;4.60;;;1.63;;
1320;SDS011;653;51.480;11.992;2023-04-24T06:35:55;1.50;;;1.13;;
1320;SDS011;653;51.480;11.992;2023-04-24T06:38:22;2.60;;;1.57;;
1320;SDS011;653;51.480;11.992;2023-04-24T06:40:48;3.00;;;1.73;;
1320;SDS011;653;51.480;11.992;2023-04-24T06:43:16;2.03;;;1.40;;
1320;SDS011;653;51.480;11.992;2023-04-24T06:45:46;1.80;;;1.10;;
1320;SDS011;653;51.480;11.992;2023-04-24T06:48:12;6.17;;;1.37;;
1320;SDS011;653;51.480;11.992;2023-04-24T06:50:37;2.00;;;1.27;;
1320;SDS011;653;51.480;11.992;2023-04-24T06:53:04;1.93;;;1.23;;
1320;SDS011;653;51.480;11.992;2023-04-24T06:55:32;1.80;;;1.33;;
1320;SDS011;653;51.480;11.992;2023-04-24T06:57:59;2.33;;;1.60;;
1320;SDS011;653;51.480;11.992;2023-04-24T07:00:26;3.17;;;1.57;;
1320;SDS011;653;51.480;11.992;2023-04-24T07:02:52;2.90;;;1.63;;
1320;SDS011;653;51.480;11.992;2023-04-24T07:05:18;2.23;;;1.30;;
1320;SDS011;653;51.480;11.992;2023-04-24T07:07:48;1.77;;;1.10;;
1320;SDS011;653;51.480;11.992;2023-04-24T07:10:16;2.53;;;1.50;;
1320;SDS011;653;51.480;11.992;2023-04-24T07:12:44;1.50;;;1.40;;
1320;SDS011;653;51.480;11.992;2023-04-24T07:15:11;4.93;;;1.60;;
1320;SDS011;653;51.480;11.992;2023-04-24T07:17:36;2.73;;;1.50;;
1320;SDS011;653;51.480;11.992;2023-04-24T07:20:04;5.37;;;1.73;;
1320;SDS011;653;51.480;11.992;2023-04-24T07:22:33;2.47;;;1.20;;
1320;SDS011;653;51.480;11.992;2023-04-24T07:25:00;1.93;;;1.57;;
1320;SDS011;653;51.480;11.992;2023-04-24T07:27:27;1.90;;;1.40;;
1320;SDS011;653;51.480;11.992;2023-04-24T07:29:54;1.40;;;1.10;;
1320;SDS011;653;51.480;11.992;2023-04-24T07:32:20;2.20;;;1.00;;
1320;SDS011;653;51.480;11.992;2023-04-24T07:34:47;1.70;;;1.30;;
1320;SDS011;653;51.480;11.992;2023-04-24T07:37:14;3.20;;;1.50;;
1320;SDS011;653;51.480;11.992;2023-04-24T07:39:41;2.00;;;1.30;;
1320;SDS011;653;51.480;11.992;2023-04-24T07:42:08;2.57;;;1.50;;
1320;SDS011;653;51.480;11.992;2023-04-24T07:44:35;3.87;;;1.20;;
1320;SDS011;653;51.480;11.992;2023-04-24T07:47:02;1.80;;;1.50;;
1320;SDS011;653;51.480;11.992;2023-04-24T07:49:29;2.40;;;1.20;;
1320;SDS011;653;51.480;11.992;2023-04-24T07:51:55;3.20;;;1.53;;
1320;SDS011;653;51.480;11.992;2023-04-24T07:54:21;2.57;;;1.60;;
1320;SDS011;653;51.480;11.992;2023-04-24T07:56:48;1.43;;;1.23;;
1320;SDS011;653;51.480;11.992;2023-04-24T07:59:15;2.17;;;1.70;;
1320;SDS011;653;51.480;11.992;2023-04-24T08:01:42;1.90;;;1.30;;
1320;SDS011;653;51.480;11.992;2023-04-24T08:04:09;1.73;;;1.20;;
1320;SDS011;653;51.480;11.992;2023-04-24T08:06:35;2.70;;;1.67;;
1320;SDS011;653;51.480;11.992;2023-04-24T08:09:02;2.57;;;1.50;;
1320;SDS011;653;51.480;11.992;2023-04-24T08:11:28;2.80;;;1.20;;
1320;SDS011;653;51.480;11.992;2023-04-24T08:14:02;1.97;;;1.43;;
1320;SDS011;653;51.480;11.992;2023-04-24T08:16:27;5.33;;;1.47;;
1320;SDS011;653;51.480;11.992;2023-04-24T08:18:54;2.40;;;1.40;;
1320;SDS011;653;51.480;11.992;2023-04-24T08:21:21;3.63;;;1.60;;
1320;SDS011;653;51.480;11.992;2023-04-24T08:23:47;4.00;;;1.20;;
1320;SDS011;653;51.480;11.992;2023-04-24T08:26:13;3.00;;;1.20;;
1320;SDS011;653;51.480;11.992;2023-04-24T08:28:41;1.50;;;1.17;;
1320;SDS011;653;51.480;11.992;2023-04-24T08:31:08;2.13;;;1.50;;
1320;SDS011;653;51.480;11.992;2023-04-24T08:33:35;3.00;;;1.27;;
1320;SDS011;653;51.480;11.992;2023-04-24T08:36:02;1.50;;;1.20;;
1320;SDS011;653;51.480;11.992;2023-04-24T08:38:31;2.13;;;1.30;;
1320;SDS011;653;51.480;11.992;2023-04-24T08:41:01;1.70;;;1.60;;
1320;SDS011;653;51.480;11.992;2023-04-24T08:43:28;2.23;;;1.47;;
1320;SDS011;653;51.480;11.992;2023-04-24T08:45:58;2.40;;;2.20;;
1320;SDS011;653;51.480;11.992;2023-04-24T08:48:28;2.83;;;1.93;;
1320;SDS011;653;51.480;11.992;2023-04-24T08:50:55;2.43;;;1.80;;
1320;SDS011;653;51.480;11.992;2023-04-24T08:53:24;2.10;;;1.90;;
1320;SDS011;653;51.480;11.992;2023-04-24T08:55:50;2.73;;;2.00;;
1320;SDS011;653;51.480;11.992;2023-04-24T08:58:17;2.43;;;1.80;;
1320;SDS011;653;51.480;11.992;2023-04-24T09:00:45;2.80;;;1.43;;
1320;SDS011;653;51.480;11.992;2023-04-24T09:03:15;2.20;;;1.93;;
1320;SDS011;653;51.480;11.992;2023-04-24T09:05:44;4.13;;;1.40;;
1320;SDS011;653;51.480;11.992;2023-04-24T09:08:13;2.60;;;1.90;;
1320;SDS011;653;51.480;11.992;2023-04-24T09:10:41;1.60;;;1.50;;
1320;SDS011;653;51.480;11.992;2023-04-24T09:13:06;2.30;;;1.70;;
1320;SDS011;653;51.480;11.992;2023-04-24T09:15:36;2.73;;;1.63;;
1320;SDS011;653;51.480;11.992;2023-04-24T09:18:04;2.30;;;1.90;;
1320;SDS011;653;51.480;11.992;2023-04-24T09:20:31;1.80;;;1.70;;
1320;SDS011;653;51.480;11.992;2023-04-24T09:22:58;2.80;;;1.63;;
1320;SDS011;653;51.480;11.992;2023-04-24T09:25:34;2.43;;;1.70;;
1320;SDS011;653;51.480;11.992;2023-04-24T09:28:04;1.50;;;1.40;;
1320;SDS011;653;51.480;11.992;2023-04-24T09:30:30;2.23;;;1.60;;
1320;SDS011;653;51.480;11.992;2023-04-24T09:33:14;3.03;;;2.03;;
1320;SDS011;653;51.480;11.992;2023-04-24T09:35:42;2.50;;;2.30;;
1320;SDS011;653;51.480;11.992;2023-04-24T09:38:16;2.80;;;2.00;;
1320;SDS011;653;51.480;11.992;2023-04-24T09:40:43;2.30;;;2.10;;
1320;SDS011;653;51.480;11.992;2023-04-24T09:43:12;2.00;;;1.80;;
1320;SDS011;653;51.480;11.992;2023-04-24T09:46:00;2.97;;;2.20;;
1320;SDS011;653;51.480;11.992;2023-04-24T09:48:32;2.00;;;1.80;;
1320;SDS011;653;51.480;11.992;2023-04-24T09:50:58;2.47;;;2.27;;
1320;SDS011;653;51.480;11.992;2023-04-24T09:53:27;3.03;;;2.30;;
1320;SDS011;653;51.480;11.992;2023-04-24T09:55:52;2.43;;;1.97;;
1320;SDS011;653;51.480;11.992;2023-04-24T09:58:18;3.57;;;2.73;;
1320;SDS011;653;51.480;11.992;2023-04-24T10:00:55;2.83;;;2.63;;
1320;SDS011;653;51.480;11.992;2023-04-24T10:03:29;2.37;;;2.17;;
1320;SDS011;653;51.480;11.992;2023-04-24T10:06:01;18.97;;;2.63;;
1320;SDS011;653;51.480;11.992;2023-04-24T10:08:37;4.27;;;3.00;;
1320;SDS011;653;51.480;11.992;2023-04-24T10:11:03;2.93;;;2.73;;
1320;SDS011;653;51.480;11.992;2023-04-24T10:13:28;3.30;;;2.40;;
1320;SDS011;653;51.480;11.992;2023-04-24T10:15:56;2.20;;;2.00;;
1320;SDS011;653;51.480;11.992;2023-04-24T10:18:21;5.07;;;2.60;;
1320;SDS011;653;51.480;11.992;2023-04-24T10:20:48;2.93;;;2.63;;
1320;SDS011;653;51.480;11.992;2023-04-24T10:23:16;2.60;;;2.40;;
1320;SDS011;653;51.480;11.992;2023-04-24T10:25:47;2.40;;;2.20;;
1320;SDS011;653;51.480;11.992;2023-04-24T10:28:16;3.03;;;2.70;;
1320;SDS011;653;51.480;11.992;2023-04-24T10:30:44;2.90;;;2.63;;
1320;SDS011;653;51.480;11.992;2023-04-24T10:33:12;2.60;;;2.40;;
1320;SDS011;653;51.480;11.992;2023-04-24T10:35:40;3.33;;;2.30;;
1320;SDS011;653;51.480;11.992;2023-04-24T10:38:09;3.57;;;1.80;;
1320;SDS011;653;51.480;11.992;2023-04-24T10:40:39;2.30;;;2.10;;
1320;SDS011;653;51.480;11.992;2023-04-24T10:43:06;2.20;;;2.00;;
1320;SDS011;653;51.480;11.992;2023-04-24T10:45:36;2.60;;;2.40;;
1320;SDS011;653;51.480;11.992;2023-04-24T10:48:03;3.47;;;2.50;;
1320;SDS011;653;51.480;11.992;2023-04-24T10:50:44;3.10;;;2.43;;
1320;SDS011;653;51.480;11.992;2023-04-24T10:53:21;2.50;;;2.30;;
1320;SDS011;653;51.480;11.992;2023-04-24T10:58:53;3.67;;;2.07;;
1320;SDS011;653;51.480;11.992;2023-04-24T11:01:26;7.00;;;2.83;;
1320;SDS011;653;51.480;11.992;2023-04-24T11:03:58;2.83;;;2.53;;
1320;SDS011;653;51.480;11.992;2023-04-24T11:06:32;2.73;;;2.53;;
1320;SDS011;653;51.480;11.992;2023-04-24T11:09:09;3.30;;;2.30;;
1320;SDS011;653;51.480;11.992;2023-04-24T11:11:37;2.70;;;2.50;;
1320;SDS011;653;51.480;11.992;2023-04-24T11:14:06;3.27;;;2.47;;
1320;SDS011;653;51.480;11.992;2023-04-24T11:22:02;2.40;;;2.20;;
1320;SDS011;653;51.480;11.992;2023-04-24T11:24:48;2.80;;;2.10;;
1320;SDS011;653;51.480;11.992;2023-04-24T11:27:17;2.10;;;1.90;;
1320;SDS011;653;51.480;11.992;2023-04-24T11:37:49;2.40;;;2.20;;
1320;SDS011;653;51.480;11.992;2023-04-24T11:40:17;3.30;;;2.17;;
1320;SDS011;653;51.480;11.992;2023-04-24T11:42:52;3.00;;;2.50;;
1320;SDS011;653;51.480;11.992;2023-04-24T11:45:26;6.67;;;3.00;;
1320;SDS011;653;51.480;11.992;2023-04-24T11:47:54;3.40;;;2.43;;
1320;SDS011;653;51.480;11.992;2023-04-24T11:50:22;2.70;;;2.50;;
1320;SDS011;653;51.480;11.992;2023-04-24T11:52:50;2.60;;;2.40;;
1320;SDS011;653;51.480;11.992;2023-04-24T11:57:49;7.27;;;2.33;;
1320;SDS011;653;51.480;11.992;2023-04-24T12:00:22;2.70;;;2.50;;
1320;SDS011;653;51.480;11.992;2023-04-24T12:02:49;2.53;;;2.33;;
1320;SDS011;653;51.480;11.992;2023-04-24T12:05:25;2.50;;;2.30;;
1320;SDS011;653;51.480;11.992;2023-04-24T12:07:53;2.97;;;2.40;;
1320;SDS011;653;51.480;11.992;2023-04-24T12:10:25;3.80;;;3.07;;
1320;SDS011;653;51.480;11.992;2023-04-24T12:12:53;4.67;;;3.00;;
1320;SDS011;653;51.480;11.992;2023-04-24T12:15:21;2.73;;;2.53;;
1320;SDS011;653;51.480;11.992;2023-04-24T12:17:50;3.40;;;2.87;;
1320;SDS011;653;51.480;11.992;2023-04-24T12:20:17;5.47;;;2.90;;
1320;SDS011;653;51.480;11.992;2023-04-24T12:22:53;3.20;;;2.97;;
1320;SDS011;653;51.480;11.992;2023-04-24T12:25:20;3.03;;;2.83;;
1320;SDS011;653;51.480;11.992;2023-04-24T12:28:10;2.67;;;2.47;;
1320;SDS011;653;51.480;11.992;2023-04-24T12:30:43;3.20;;;2.90;;
1320;SDS011;653;51.480;11.992;2023-04-24T12:33:11;2.50;;;2.30;;
1320;SDS011;653;51.480;11.992;2023-04-24T12:35:39;2.80;;;2.60;;
1320;SDS011;653;51.480;11.992;2023-04-24T12:38:10;2.83;;;2.40;;
1320;SDS011;653;51.480;11.992;2023-04-24T12:40:39;3.00;;;2.80;;
1320;SDS011;653;51.480;11.992;2023-04-24T12:43:17;2.50;;;2.30;;
1320;SDS011;653;51.480;11.992;2023-04-24T12:45:45;3.30;;;2.90;;
1320;SDS011;653;51.480;11.992;2023-04-24T12:48:14;2.60;;;2.40;;
1320;SDS011;653;51.480;11.992;2023-04-24T12:50:41;3.93;;;2.47;;
1320;SDS011;653;51.480;11.992;2023-04-24T12:53:07;3.10;;;2.80;;
1320;SDS011;653;51.480;11.992;2023-04-24T12:55:38;3.23;;;2.50;;
1320;SDS011;653;51.480;11.992;2023-04-24T12:58:05;2.80;;;2.20;;
1320;SDS011;653;51.480;11.992;2023-04-24T13:00:32;2.27;;;2.17;;
1320;SDS011;653;51.480;11.992;2023-04-24T13:02:58;2.70;;;2.30;;
1320;SDS011;653;51.480;11.992;2023-04-24T13:05:25;2.97;;;2.67;;
1320;SDS011;653;51.480;11.992;2023-04-24T13:07:50;4.57;;;2.60;;
1320;SDS011;653;51.480;11.992;2023-04-24T13:10:16;2.90;;;2.10;;
1320;SDS011;653;51.480;11.992;2023-04-24T13:12:43;4.23;;;2.37;;
1320;SDS011;653;51.480;11.992;2023-04-24T13:15:12;3.70;;;2.47;;
1320;SDS011;653;51.480;11.992;2023-04-24T13:17:39;2.47;;;2.27;;
1320;SDS011;653;51.480;11.992;2023-04-24T13:20:06;2.53;;;2.33;;
1320;SDS011;653;51.480;11.992;2023-04-24T13:22:32;4.70;;;2.77;;
1320;SDS011;653;51.480;11.992;2023-04-24T13:24:59;6.27;;;2.60;;
1320;SDS011;653;51.480;11.992;2023-04-24T13:27:26;2.67;;;2.43;;
1320;SDS011;653;51.480;11.992;2023-04-24T13:29:53;4.07;;;2.37;;
1320;SDS011;653;51.480;11.992;2023-04-24T13:32:19;3.60;;;2.50;;
1320;SDS011;653;51.480;11.992;2023-04-24T13:34:46;2.63;;;2.43;;
1320;SDS011;653;51.480;11.992;2023-04-24T13:37:14;2.53;;;2.33;;
1320;SDS011;653;51.480;11.992;2023-04-24T13:39:41;2.57;;;2.10;;
1320;SDS011;653;51.480;11.992;2023-04-24T13:42:08;2.27;;;2.07;;
1320;SDS011;653;51.480;11.992;2023-04-24T13:44:34;2.70;;;2.33;;
1320;SDS011;653;51.480;11.992;2023-04-24T13:47:00;2.37;;;2.10;;
1320;SDS011;653;51.480;11.992;2023-04-24T13:49:27;3.20;;;2.47;;
1320;SDS011;653;51.480;11.992;2023-04-24T13:51:54;3.50;;;2.50;;
1320;SDS011;653;51.480;11.992;2023-04-24T13:54:21;1.80;;;1.70;;
1320;SDS011;653;51.480;11.992;2023-04-24T13:56:49;2.50;;;2.30;;
1320;SDS011;653;51.480;11.992;2023-04-24T13:59:17;3.83;;;2.80;;
1320;SDS011;653;51.480;11.992;2023-04-24T14:01:44;3.00;;;2.20;;
1320;SDS011;653;51.480;11.992;2023-04-24T14:04:11;5.23;;;2.17;;
1320;SDS011;653;51.480;11.992;2023-04-24T14:06:37;2.73;;;2.50;;
1320;SDS011;653;51.480;11.992;2023-04-24T14:09:03;2.97;;;2.67;;
1320;SDS011;653;51.480;11.992;2023-04-24T14:11:33;2.23;;;2.03;;
1320;SDS011;653;51.480;11.992;2023-04-24T14:14:00;2.77;;;2.57;;
1320;SDS011;653;51.480;11.992;2023-04-24T14:16:29;3.50;;;2.00;;
1320;SDS011;653;51.480;11.992;2023-04-24T14:18:57;3.50;;;2.43;;
1320;SDS011;653;51.480;11.992;2023-04-24T14:21:23;4.50;;;2.50;;
1320;SDS011;653;51.480;11.992;2023-04-24T14:23:50;3.70;;;2.00;;
1320;SDS011;653;51.480;11.992;2023-04-24T14:26:17;3.40;;;2.20;;
1320;SDS011;653;51.480;11.992;2023-04-24T14:28:43;2.63;;;1.80;;
1320;SDS011;653;51.480;11.992;2023-04-24T14:31:10;6.90;;;2.30;;
1320;SDS011;653;51.480;11.992;2023-04-24T14:33:36;2.07;;;1.80;;
1320;SDS011;653;51.480;11.992;2023-04-24T14:36:02;2.27;;;2.00;;
1320;SDS011;653;51.480;11.992;2023-04-24T14:38:32;1.87;;;1.77;;
1320;SDS011;653;51.480;11.992;2023-04-24T14:41:00;2.53;;;1.73;;
1320;SDS011;653;51.480;11.992;2023-04-24T14:43:27;3.43;;;2.07;;
1320;SDS011;653;51.480;11.992;2023-04-24T14:45:53;2.20;;;1.73;;
1320;SDS011;653;51.480;11.992;2023-04-24T14:48:18;2.30;;;1.53;;
1320;SDS011;653;51.480;11.992;2023-04-24T14:50:46;1.87;;;1.77;;
1320;SDS011;653;51.480;11.992;2023-04-24T14:53:12;2.40;;;1.53;;
1320;SDS011;653;51.480;11.992;2023-04-24T14:55:40;1.83;;;1.50;;
1320;SDS011;653;51.480;11.992;2023-04-24T14:58:07;2.23;;;1.53;;
1320;SDS011;653;51.480;11.992;2023-04-24T15:00:32;3.97;;;1.40;;
1320;SDS011;653;51.480;11.992;2023-04-24T15:03:00;1.23;;;1.13;;
1320;SDS011;653;51.480;11.992;2023-04-24T15:05:26;1.73;;;1.63;;
1320;SDS011;653;51.480;11.992;2023-04-24T15:07:53;1.50;;;1.30;;
1320;SDS011;653;51.480;11.992;2023-04-24T15:10:19;1.50;;;1.40;;
1320;SDS011;653;51.480;11.992;2023-04-24T15:12:47;1.90;;;1.20;;
1320;SDS011;653;51.480;11.992;2023-04-24T15:15:16;2.93;;;1.30;;
1320;SDS011;653;51.480;11.992;2023-04-24T15:17:43;3.53;;;1.10;;
1320;SDS011;653;51.480;11.992;2023-04-24T15:20:08;3.30;;;1.40;;
1320;SDS011;653;51.480;11.992;2023-04-24T15:22:36;2.57;;;1.57;;
1320;SDS011;653;51.480;11.992;2023-04-24T15:25:03;2.30;;;1.30;;
1320;SDS011;653;51.480;11.992;2023-04-24T15:27:42;2.03;;;1.50;;
1320;SDS011;653;51.480;11.992;2023-04-24T15:30:09;1.40;;;1.30;;
1320;SDS011;653;51.480;11.992;2023-04-24T15:32:35;1.70;;;1.60;;
1320;SDS011;653;51.480;11.992;2023-04-24T15:35:01;1.70;;;1.60;;
1320;SDS011;653;51.480;11.992;2023-04-24T15:37:27;1.70;;;1.60;;